Isfara, Tajikistan

7:50 AM TJT on September 20, 2014 (GMT +0500)
Khudzhand | Change Station
CLOSE
Current Station
Airport
Location: Khudzhand,
Elevation: 1450 ft
Nearby Weather Stations

Elev 1450 ft 40.22 °N, 69.69 °E | Updated 20 minutes ago

Clear
Clear
52 °F
Feels Like 52 °F
N
4
Wind Variable Wind from West

Today
High -- | Low -- °F
--% Chance of Precip.
Yesterday
High -- | Low -- °F
Precip. -- in
6:02 AM 6:18 PM
Waning Crescent, 15% visible
Pressure 30.18 in
Visibility 6.2 miles
Clouds Clear
Dew Point 25 °F
Humidity 35%
Rainfall 0.00 in
Snow Depth Not available.
UV 1 out of 12
Pollen Not available.
Air Quality Not available.
Flu Activity Not available.
METAR UTDL 200230Z 26002MPS 9999 SKC 11/M04 Q1022 NOSIG RMK QFE729/0972 88CLRD70

More Conditions Fewer Conditions

Pressure 30.18 in
Visibility 6.2 miles
Clouds Clear
Dew Point 25 °F
Humidity 35%
Rainfall 0.00 in
Snow Depth Not available.
UV 1 out of 12
Pollen Not available.
Air Quality Not available.
Flu Activity Not available.
METAR UTDL 200230Z 26002MPS 9999 SKC 11/M04 Q1022 NOSIG RMK QFE729/0972 88CLRD70

More Conditions Fewer Conditions

10-Day Weather Forecast

Almanac

Astronomy

Sep. 20, 2014 Rise Set
Actual Time 6:02 AM TJT 6:18 PM TJT
Civil Twilight 5:35 AM TJT 6:45 PM TJT
Nautical Twilight 5:03 AM TJT 7:17 PM TJT
Astronomical Twilight 4:31 AM TJT 7:49 PM TJT
Moon 2:17 AM TJT 4:07 PM TJT
Length of Visible Light 13h 10m
Length of Day
12h 15m
Tomorrow will be 2m 38s shorter.
Waning Crescent, 15% of the Moon is Illuminated
Sep 19
Waning Crescent
Sep 24
New
Oct 1
First Quarter
Oct 8
Full
Oct 15
Last Quarter

Yesterday's Extremes

Country Highs Country Lows

Community

WunderPhotos

Upload Photos

1,754,768 photos uploaded!

WunderBlogs® & News

Nearby

Snow Depth

Not available.

Earthquake Activity

City Distance Mag. Time & Date
No recent earthquake activity has been reported nearby.
Minimum magnitude displayed is 2.5.

Coastal Water Temperatures

Place Temperature
No Stations Reporting

Nearby Weather Stations